Terminal Aerodrome Forecast
Issued by NWS Northern Indiana

Home | Current Version | Previous Version | Text Only | Print | Product List | Glossary Off
Versions: 1 2 3 4 5 6 7 8 9 10 11 12 13 14 15 16 17 18

174
FTUS43 KIWX 282343
TAFFWA
TAF
KFWA 282343Z 2900/2924 08008KT P6SM OVC012
     FM290500 04004KT 6SM BR OVC008
     FM291000 01003KT 4SM BR OVC004
     FM291400 03004KT P6SM OVC010
     FM291800 04005KT P6SM BKN025=

USA.gov is the U.S. government's official web portal to all federal, state and local government web resources and services.